Time,TemperatureF,DewpointF,PressureIn,WindDirection,WindDirectionDegrees,WindSpeedMPH,WindSpeedGustMPH,Humidity,HourlyPrecipIn,Conditions,Clouds,dailyrainin,SoftwareType,DateUTC
2013-05-14 00:00:00,43.2,30.2,-100.00,WNW,295,0.0,5.0,60,0.00,,,0.00,meteohub,2013-05-14 04:00:00,
2013-05-14 00:01:00,43.5,30.6,-100.00,WNW,295,0.0,4.0,60,0.00,,,0.00,meteohub,2013-05-14 04:01:00,
2013-05-14 00:02:00,43.0,30.0,-100.00,NNW,329,0.0,4.0,60,0.00,,,0.00,meteohub,2013-05-14 04:02:00,
2013-05-14 00:03:00,43.2,30.2,-100.00,NNW,329,0.0,4.0,60,0.00,,,0.00,meteohub,2013-05-14 04:03:00,
2013-05-14 00:06:00,43.0,30.0,-100.00,NW,310,4.0,5.0,60,0.00,,,0.00,meteohub,2013-05-14 04:06:00,
2013-05-14 00:11:00,43.0,30.4,-100.00,NW,323,0.0,5.0,61,0.00,,,0.00,meteohub,2013-05-14 04:11:00,
2013-05-14 00:13:00,42.6,30.2,-100.00,NW,323,0.0,5.0,61,0.00,,,0.00,meteohub,2013-05-14 04:13:00,
2013-05-14 00:18:00,41.7,29.3,-100.00,NNW,329,0.0,5.0,61,0.00,,,0.00,meteohub,2013-05-14 04:18:00,
2013-05-14 00:23:00,42.4,29.5,-100.00,NW,306,0.0,5.0,60,0.00,,,0.00,meteohub,2013-05-14 04:23:00,
2013-05-14 00:28:00,42.6,30.2,-100.00,NW,306,0.0,5.0,61,0.00,,,0.00,meteohub,2013-05-14 04:28:00,
2013-05-14 00:33:00,43.2,30.6,-100.00,NW,306,0.0,5.0,61,0.00,,,0.00,meteohub,2013-05-14 04:33:00,
2013-05-14 00:38:00,42.6,30.2,-100.00,NW,315,0.0,3.0,61,0.00,,,0.00,meteohub,2013-05-14 04:38:00,
2013-05-14 00:43:00,43.0,30.4,-100.00,NW,315,0.0,3.0,61,0.00,,,0.00,meteohub,2013-05-14 04:43:00,
2013-05-14 00:48:00,42.3,30.2,-100.00,NW,315,0.0,3.0,62,0.00,,,0.00,meteohub,2013-05-14 04:48:00,
2013-05-14 00:53:00,42.6,30.2,-100.00,NW,315,0.0,0.0,61,0.00,,,0.00,meteohub,2013-05-14 04:53:00,
2013-05-14 00:58:00,42.3,30.2,-100.00,NW,315,0.0,0.0,62,0.00,,,0.00,meteohub,2013-05-14 04:58:00,
2013-05-14 01:03:00,42.4,30.4,-100.00,WNW,291,0.0,0.0,62,0.00,,,0.00,meteohub,2013-05-14 05:03:00,
2013-05-14 01:08:00,41.9,29.8,-100.00,WNW,291,0.0,1.0,62,0.00,,,0.00,meteohub,2013-05-14 05:08:00,
2013-05-14 01:13:00,41.9,29.8,-100.00,WNW,291,0.0,1.0,62,0.00,,,0.00,meteohub,2013-05-14 05:13:00,
2013-05-14 01:18:00,42.3,29.8,-100.00,WNW,291,0.0,1.0,61,0.00,,,0.00,meteohub,2013-05-14 05:18:00,
2013-05-14 01:23:00,41.9,29.5,-100.00,WNW,291,0.0,0.0,61,0.00,,,0.00,meteohub,2013-05-14 05:23:00,
2013-05-14 01:29:00,42.3,30.2,-100.00,WNW,291,0.0,0.0,62,0.00,,,0.00,meteohub,2013-05-14 05:29:00,
2013-05-14 01:34:00,42.4,30.4,-100.00,NW,309,3.0,0.0,62,0.00,,,0.00,meteohub,2013-05-14 05:34:00,
2013-05-14 01:39:00,41.7,29.7,-100.00,WNW,291,0.0,6.0,62,0.00,,,0.00,meteohub,2013-05-14 05:39:00,
2013-05-14 01:44:00,42.4,30.4,-100.00,West,275,0.0,6.0,62,0.00,,,0.00,meteohub,2013-05-14 05:44:00,
2013-05-14 01:49:00,42.6,30.6,-100.00,West,275,0.0,6.0,62,0.00,,,0.00,meteohub,2013-05-14 05:49:00,
2013-05-14 01:54:00,41.7,30.0,-100.00,West,275,0.0,4.0,63,0.00,,,0.00,meteohub,2013-05-14 05:54:00,
2013-05-14 01:59:00,42.4,30.7,-100.00,NW,322,0.0,4.0,63,0.00,,,0.00,meteohub,2013-05-14 05:59:00,
2013-05-14 02:04:00,42.3,30.6,-100.00,NW,306,2.0,4.0,63,0.00,,,0.00,meteohub,2013-05-14 06:04:00,
2013-05-14 02:09:00,42.3,30.2,-100.00,NNE,22,0.0,4.0,62,0.00,,,0.00,meteohub,2013-05-14 06:09:00,
2013-05-14 02:14:00,42.6,30.6,-100.00,West,265,0.0,9.0,62,0.00,,,0.00,meteohub,2013-05-14 06:14:00,
2013-05-14 02:19:00,41.9,30.2,-100.00,West,265,0.0,9.0,63,0.00,,,0.00,meteohub,2013-05-14 06:19:00,
2013-05-14 02:24:00,41.7,29.7,-100.00,WNW,302,0.0,9.0,62,0.00,,,0.00,meteohub,2013-05-14 06:24:00,
2013-05-14 02:29:00,42.6,30.6,-100.00,WNW,291,0.0,4.0,62,0.00,,,0.00,meteohub,2013-05-14 06:29:00,
2013-05-14 02:34:00,42.3,29.8,-100.00,WNW,291,0.0,4.0,61,0.00,,,0.00,meteohub,2013-05-14 06:34:00,
2013-05-14 02:39:00,42.3,30.2,-100.00,WNW,291,0.0,4.0,62,0.00,,,0.00,meteohub,2013-05-14 06:39:00,
2013-05-14 02:44:00,42.6,30.2,-100.00,NNW,341,0.0,4.0,61,0.00,,,0.00,meteohub,2013-05-14 06:44:00,
2013-05-14 02:49:00,42.3,29.8,-100.00,WNW,289,0.0,4.0,61,0.00,,,0.00,meteohub,2013-05-14 06:49:00,
2013-05-14 02:55:00,41.4,28.9,-100.00,NNE,16,0.0,4.0,61,0.00,,,0.00,meteohub,2013-05-14 06:55:00,
2013-05-14 03:00:00,42.3,29.8,-100.00,NNW,338,0.0,5.0,61,0.00,,,0.00,meteohub,2013-05-14 07:00:00,
2013-05-14 03:05:00,42.3,29.3,-100.00,WNW,302,2.0,5.0,60,0.00,,,0.00,meteohub,2013-05-14 07:05:00,
2013-05-14 03:10:00,42.6,29.7,-100.00,NNW,330,0.0,5.0,60,0.00,,,0.00,meteohub,2013-05-14 07:10:00,
2013-05-14 03:15:00,42.4,30.0,-100.00,NW,310,1.0,7.0,61,0.00,,,0.00,meteohub,2013-05-14 07:15:00,
2013-05-14 03:20:00,43.2,30.6,-100.00,NW,310,2.0,7.0,61,0.00,,,0.00,meteohub,2013-05-14 07:20:00,
2013-05-14 03:25:00,43.0,30.9,-100.00,North,5,0.0,7.0,62,0.00,,,0.00,meteohub,2013-05-14 07:25:00,
2013-05-14 03:30:00,42.4,30.0,-100.00,North,1,2.0,7.0,61,0.00,,,0.00,meteohub,2013-05-14 07:30:00,
2013-05-14 03:35:00,42.3,29.8,-100.00,NW,322,3.0,7.0,61,0.00,,,0.00,meteohub,2013-05-14 07:35:00,
2013-05-14 03:40:00,41.9,29.5,-100.00,NW,322,0.0,7.0,61,0.00,,,0.00,meteohub,2013-05-14 07:40:00,
2013-05-14 03:45:00,42.3,30.2,-100.00,NNW,330,0.0,6.0,62,0.00,,,0.00,meteohub,2013-05-14 07:45:00,
2013-05-14 03:50:00,42.6,30.6,-100.00,NW,309,5.0,6.0,62,0.00,,,0.00,meteohub,2013-05-14 07:50:00,
2013-05-14 03:55:00,42.4,30.0,-100.00,WNW,289,5.0,8.0,61,0.00,,,0.00,meteohub,2013-05-14 07:55:00,
2013-05-14 04:00:00,42.3,29.8,-100.00,NNW,327,2.0,8.0,61,0.00,,,0.00,meteohub,2013-05-14 08:00:00,
2013-05-14 04:05:00,42.3,29.8,-100.00,North,358,0.0,7.0,61,0.00,,,0.00,meteohub,2013-05-14 08:05:00,
2013-05-14 04:10:00,42.6,29.7,-100.00,WSW,258,0.0,7.0,60,0.00,,,0.00,meteohub,2013-05-14 08:10:00,
2013-05-14 04:15:00,43.0,30.0,-100.00,NW,326,0.0,5.0,60,0.00,,,0.00,meteohub,2013-05-14 08:15:00,
2013-05-14 04:20:00,42.6,29.3,-100.00,NW,309,1.0,4.0,59,0.00,,,0.00,meteohub,2013-05-14 08:20:00,
2013-05-14 04:26:00,42.4,29.1,-100.00,North,351,0.0,4.0,59,0.00,,,0.00,meteohub,2013-05-14 08:26:00,
2013-05-14 04:31:00,43.0,29.7,-100.00,North,351,0.0,3.0,59,0.00,,,0.00,meteohub,2013-05-14 08:31:00,
2013-05-14 04:36:00,41.9,28.9,-100.00,NE,43,0.0,3.0,60,0.00,,,0.00,meteohub,2013-05-14 08:36:00,
2013-05-14 04:41:00,42.6,29.3,-100.00,NW,309,5.0,9.0,59,0.00,,,0.00,meteohub,2013-05-14 08:41:00,
2013-05-14 04:46:00,42.6,29.3,-100.00,WNW,295,0.0,9.0,59,0.00,,,0.00,meteohub,2013-05-14 08:46:00,
2013-05-14 04:51:00,43.0,29.7,-100.00,North,8,3.0,9.0,59,0.00,,,0.00,meteohub,2013-05-14 08:51:00,
2013-05-14 04:56:00,42.3,28.9,-100.00,NNW,338,0.0,9.0,59,0.00,,,0.00,meteohub,2013-05-14 08:56:00,
2013-05-14 05:01:00,43.0,29.7,-100.00,NNE,18,0.0,7.0,59,0.00,,,0.00,meteohub,2013-05-14 09:01:00,
2013-05-14 05:06:00,42.6,29.3,-100.00,North,358,6.0,6.0,59,0.00,,,0.00,meteohub,2013-05-14 09:06:00,
2013-05-14 05:11:00,43.2,29.3,-100.00,NNW,343,0.0,6.0,58,0.00,,,0.00,meteohub,2013-05-14 09:11:00,
2013-05-14 05:16:00,43.0,29.3,-100.00,NNW,341,0.0,6.0,58,0.00,,,0.00,meteohub,2013-05-14 09:16:00,
2013-05-14 05:21:00,42.6,29.3,-100.00,NNE,19,3.0,6.0,59,0.00,,,0.00,meteohub,2013-05-14 09:21:00,
2013-05-14 05:26:00,43.2,29.8,-100.00,NNW,336,6.0,6.0,59,0.00,,,0.00,meteohub,2013-05-14 09:26:00,
2013-05-14 05:31:00,42.6,29.3,-100.00,North,358,3.0,6.0,59,0.00,,,0.00,meteohub,2013-05-14 09:31:00,
2013-05-14 05:36:00,42.6,29.3,-100.00,NNW,341,0.0,6.0,59,0.00,,,0.00,meteohub,2013-05-14 09:36:00,
2013-05-14 05:41:00,42.6,29.3,-100.00,NW,319,3.0,7.0,59,0.00,,,0.00,meteohub,2013-05-14 09:41:00,
2013-05-14 05:47:00,43.0,30.0,-100.00,NNW,343,0.0,7.0,60,0.00,,,0.00,meteohub,2013-05-14 09:47:00,
2013-05-14 05:52:00,42.6,29.3,-100.00,NW,324,0.0,7.0,59,0.00,,,0.00,meteohub,2013-05-14 09:52:00,
2013-05-14 05:57:00,43.9,30.9,-100.00,NW,310,0.0,6.0,60,0.00,,,0.00,meteohub,2013-05-14 09:57:00,
2013-05-14 06:02:00,42.6,29.7,-100.00,NW,307,0.0,6.0,60,0.00,,,0.00,meteohub,2013-05-14 10:02:00,
2013-05-14 06:07:00,43.2,30.2,-100.00,NW,313,3.0,8.0,60,0.00,,,0.00,meteohub,2013-05-14 10:07:00,
2013-05-14 06:12:00,42.6,29.7,-100.00,WNW,300,3.0,8.0,60,0.00,,,0.00,meteohub,2013-05-14 10:12:00,
2013-05-14 06:17:00,43.5,30.9,-100.00,NW,305,0.0,8.0,61,0.00,,,0.00,meteohub,2013-05-14 10:17:00,
2013-05-14 06:22:00,42.6,30.6,-100.00,NNW,338,2.0,7.0,62,0.00,,,0.00,meteohub,2013-05-14 10:22:00,
2013-05-14 06:27:00,43.2,30.6,-100.00,WNW,298,0.0,9.0,61,0.00,,,0.00,meteohub,2013-05-14 10:27:00,
2013-05-14 06:32:00,41.4,28.9,-100.00,NW,317,0.0,9.0,61,0.00,,,0.00,meteohub,2013-05-14 10:32:00,
2013-05-14 06:37:00,41.9,29.8,-100.00,WNW,289,3.0,9.0,62,0.00,,,0.00,meteohub,2013-05-14 10:37:00,
2013-05-14 06:42:00,42.4,30.4,-100.00,NE,46,0.0,7.0,62,0.00,,,0.00,meteohub,2013-05-14 10:42:00,
2013-05-14 06:47:00,42.3,30.6,-100.00,NE,46,0.0,7.0,63,0.00,,,0.00,meteohub,2013-05-14 10:47:00,
2013-05-14 06:53:00,40.6,29.1,-100.00,WNW,292,0.0,7.0,63,0.00,,,0.00,meteohub,2013-05-14 10:53:00,
2013-05-14 06:58:00,43.0,31.3,-100.00,WNW,285,0.0,6.0,63,0.00,,,0.00,meteohub,2013-05-14 10:58:00,
2013-05-14 07:03:00,42.3,30.9,-100.00,NNW,330,0.0,6.0,64,0.00,,,0.00,meteohub,2013-05-14 11:03:00,
2013-05-14 07:08:00,41.0,29.3,-100.00,NNE,29,0.0,6.0,63,0.00,,,0.00,meteohub,2013-05-14 11:08:00,
2013-05-14 07:13:00,41.2,29.5,-100.00,NNW,329,0.0,5.0,63,0.00,,,0.00,meteohub,2013-05-14 11:13:00,
2013-05-14 07:18:00,41.7,29.7,-100.00,NNW,329,0.0,5.0,62,0.00,,,0.00,meteohub,2013-05-14 11:18:00,
2013-05-14 07:23:00,42.4,30.4,-100.00,North,5,0.0,4.0,62,0.00,,,0.00,meteohub,2013-05-14 11:23:00,
2013-05-14 07:28:00,41.7,29.7,-100.00,NE,40,0.0,5.0,62,0.00,,,0.00,meteohub,2013-05-14 11:28:00,
2013-05-14 07:33:00,42.6,30.2,-100.00,NNE,19,0.0,5.0,61,0.00,,,0.00,meteohub,2013-05-14 11:33:00,
2013-05-14 07:38:00,43.0,30.4,-100.00,NW,307,0.0,7.0,61,0.00,,,0.00,meteohub,2013-05-14 11:38:00,
2013-05-14 07:43:00,43.5,30.9,-100.00,NW,315,0.0,7.0,61,0.00,,,0.00,meteohub,2013-05-14 11:43:00,
2013-05-14 07:48:00,44.4,31.8,-100.00,NNE,12,4.0,7.0,61,0.00,,,0.00,meteohub,2013-05-14 11:48:00,
2013-05-14 07:53:00,43.5,30.9,-100.00,NW,319,2.0,7.0,61,0.00,,,0.00,meteohub,2013-05-14 11:53:00,
2013-05-14 07:58:00,45.7,33.1,-100.00,East,101,1.0,7.0,61,0.00,,,0.00,meteohub,2013-05-14 11:58:00,
2013-05-14 08:03:00,44.1,30.2,-100.00,NW,306,3.0,7.0,58,0.00,,,0.00,meteohub,2013-05-14 12:03:00,
2013-05-14 08:08:00,45.3,31.8,-100.00,ENE,64,0.0,7.0,59,0.00,,,0.00,meteohub,2013-05-14 12:08:00,
2013-05-14 08:14:00,44.8,31.3,-100.00,NE,49,1.0,7.0,59,0.00,,,0.00,meteohub,2013-05-14 12:14:00,
2013-05-14 08:19:00,45.9,32.0,-100.00,NE,49,0.0,8.0,58,0.00,,,0.00,meteohub,2013-05-14 12:19:00,
2013-05-14 08:24:00,44.8,30.9,-100.00,NW,309,2.0,8.0,58,0.00,,,0.00,meteohub,2013-05-14 12:24:00,
2013-05-14 08:29:00,45.7,31.3,-100.00,NNE,12,0.0,8.0,57,0.00,,,0.00,meteohub,2013-05-14 12:29:00,
2013-05-14 08:34:00,45.9,32.0,-100.00,North,4,0.0,5.0,58,0.00,,,0.00,meteohub,2013-05-14 12:34:00,
2013-05-14 08:39:00,46.6,32.5,-100.00,NNE,29,1.0,5.0,58,0.00,,,0.00,meteohub,2013-05-14 12:39:00,
2013-05-14 08:44:00,45.7,30.9,-100.00,NE,39,5.0,6.0,56,0.00,,,0.00,meteohub,2013-05-14 12:44:00,
2013-05-14 08:49:00,46.8,32.4,-100.00,NE,49,1.0,6.0,57,0.00,,,0.00,meteohub,2013-05-14 12:49:00,
2013-05-14 08:54:00,47.3,32.4,-100.00,NE,42,3.0,6.0,56,0.00,,,0.00,meteohub,2013-05-14 12:54:00,
2013-05-14 08:59:00,46.8,31.8,-100.00,ENE,77,4.0,8.0,56,0.00,,,0.00,meteohub,2013-05-14 12:59:00,
2013-05-14 09:04:00,47.8,32.0,-100.00,WNW,295,1.0,8.0,54,0.00,,,0.00,meteohub,2013-05-14 13:04:00,
2013-05-14 09:09:00,47.3,32.0,-100.00,NNW,330,0.0,8.0,55,0.00,,,0.00,meteohub,2013-05-14 13:09:00,
2013-05-14 09:14:00,47.7,32.4,-100.00,NE,56,4.0,8.0,55,0.00,,,0.00,meteohub,2013-05-14 13:14:00,
2013-05-14 09:19:00,48.0,32.5,-100.00,North,9,0.0,8.0,55,0.00,,,0.00,meteohub,2013-05-14 13:19:00,
2013-05-14 09:24:00,48.0,32.2,-100.00,WSW,251,1.0,8.0,54,0.00,,,0.00,meteohub,2013-05-14 13:24:00,
2013-05-14 09:29:00,48.9,31.1,-100.00,NNW,344,0.0,8.0,50,0.00,,,0.00,meteohub,2013-05-14 13:29:00,
2013-05-14 09:34:00,47.8,29.7,-100.00,NE,52,7.0,7.0,49,0.00,,,0.00,meteohub,2013-05-14 13:34:00,
2013-05-14 09:40:00,47.8,29.1,-100.00,WNW,299,1.0,9.0,48,0.00,,,0.00,meteohub,2013-05-14 13:40:00,
2013-05-14 09:45:00,49.3,30.4,-100.00,SE,133,6.0,9.0,48,0.00,,,0.00,meteohub,2013-05-14 13:45:00,
2013-05-14 09:50:00,49.3,29.8,-100.00,North,358,3.0,9.0,47,0.00,,,0.00,meteohub,2013-05-14 13:50:00,
2013-05-14 09:55:00,50.2,29.7,-100.00,NW,313,1.0,9.0,45,0.00,,,0.00,meteohub,2013-05-14 13:55:00,
2013-05-14 10:00:00,50.2,30.2,-100.00,NNE,32,8.0,8.0,46,0.00,,,0.00,meteohub,2013-05-14 14:00:00,
2013-05-14 10:05:00,50.2,29.7,-100.00,NNE,18,6.0,10.0,45,0.00,,,0.00,meteohub,2013-05-14 14:05:00,
2013-05-14 10:10:00,50.4,30.4,-100.00,East,95,0.0,11.0,46,0.00,,,0.00,meteohub,2013-05-14 14:10:00,
2013-05-14 10:15:00,50.5,30.6,-100.00,NNE,23,0.0,11.0,46,0.00,,,0.00,meteohub,2013-05-14 14:15:00,
2013-05-14 10:20:00,51.6,30.9,-100.00,NNW,348,1.0,10.0,45,0.00,,,0.00,meteohub,2013-05-14 14:20:00,
2013-05-14 10:25:00,51.6,28.8,-100.00,NNE,23,1.0,10.0,41,0.00,,,0.00,meteohub,2013-05-14 14:25:00,
2013-05-14 10:30:00,52.0,30.2,-100.00,NE,50,0.0,10.0,43,0.00,,,0.00,meteohub,2013-05-14 14:30:00,
2013-05-14 10:35:00,50.5,28.2,-100.00,NNE,25,3.0,10.0,42,0.00,,,0.00,meteohub,2013-05-14 14:35:00,
2013-05-14 10:40:00,51.1,29.8,-100.00,North,354,1.0,7.0,44,0.00,,,0.00,meteohub,2013-05-14 14:40:00,
2013-05-14 10:45:00,49.6,28.6,-100.00,NE,47,4.0,7.0,44,0.00,,,0.00,meteohub,2013-05-14 14:45:00,
2013-05-14 10:50:00,50.5,28.9,-100.00,North,8,3.0,10.0,43,0.00,,,0.00,meteohub,2013-05-14 14:50:00,
2013-05-14 10:56:00,50.7,28.4,-100.00,WNW,299,2.0,10.0,42,0.00,,,0.00,meteohub,2013-05-14 14:56:00,
2013-05-14 11:01:00,51.3,30.6,-100.00,NNE,30,2.0,10.0,45,0.00,,,0.00,meteohub,2013-05-14 15:01:00,
2013-05-14 11:06:00,52.0,30.2,-100.00,NNE,18,0.0,10.0,43,0.00,,,0.00,meteohub,2013-05-14 15:06:00,
2013-05-14 11:11:00,50.9,28.6,-100.00,WNW,299,2.0,8.0,42,0.00,,,0.00,meteohub,2013-05-14 15:11:00,
2013-05-14 11:16:00,51.1,28.8,-100.00,WNW,285,5.0,8.0,42,0.00,,,0.00,meteohub,2013-05-14 15:16:00,
2013-05-14 11:21:00,51.4,29.7,-100.00,NE,46,2.0,8.0,43,0.00,,,0.00,meteohub,2013-05-14 15:21:00,
2013-05-14 11:26:00,52.2,30.4,-100.00,North,0,0.0,7.0,43,0.00,,,0.00,meteohub,2013-05-14 15:26:00,
2013-05-14 11:31:00,51.6,28.0,-100.00,NNW,348,0.0,7.0,40,0.00,,,0.00,meteohub,2013-05-14 15:31:00,
2013-05-14 11:36:00,52.5,28.2,-100.00,WNW,295,2.0,7.0,39,0.00,,,0.00,meteohub,2013-05-14 15:36:00,
2013-05-14 11:41:00,52.0,27.9,-100.00,NW,312,0.0,6.0,39,0.00,,,0.00,meteohub,2013-05-14 15:41:00,
2013-05-14 11:46:00,50.7,27.3,-100.00,NNE,26,1.0,6.0,40,0.00,,,0.00,meteohub,2013-05-14 15:46:00,
2013-05-14 11:51:00,51.3,28.4,-100.00,NE,40,6.0,6.0,41,0.00,,,0.00,meteohub,2013-05-14 15:51:00,
2013-05-14 11:56:00,51.3,27.7,-100.00,North,7,0.0,7.0,40,0.00,,,0.00,meteohub,2013-05-14 15:56:00,
2013-05-14 12:01:00,51.1,27.0,-100.00,West,265,3.0,8.0,39,0.00,,,0.00,meteohub,2013-05-14 16:01:00,
2013-05-14 12:06:00,52.3,27.5,-100.00,NW,317,0.0,8.0,38,0.00,,,0.00,meteohub,2013-05-14 16:06:00,
2013-05-14 12:11:00,52.0,27.1,-100.00,NW,315,4.0,9.0,38,0.00,,,0.00,meteohub,2013-05-14 16:11:00,
2013-05-14 12:16:00,50.7,26.6,-100.00,WNW,284,9.0,9.0,39,0.00,,,0.00,meteohub,2013-05-14 16:16:00,
2013-05-14 12:22:00,50.7,27.3,-100.00,NNW,327,4.0,12.0,40,0.00,,,0.00,meteohub,2013-05-14 16:22:00,
2013-05-14 12:27:00,52.2,27.9,-100.00,NW,316,3.0,12.0,39,0.00,,,0.00,meteohub,2013-05-14 16:27:00,
2013-05-14 12:32:00,51.6,29.3,-100.00,NW,320,0.0,12.0,42,0.00,,,0.00,meteohub,2013-05-14 16:32:00,
2013-05-14 12:37:00,53.8,30.6,-100.00,East,98,5.0,6.0,41,0.00,,,0.00,meteohub,2013-05-14 16:37:00,
2013-05-14 12:42:00,53.8,29.5,-100.00,NNE,30,1.0,9.0,39,0.00,,,0.00,meteohub,2013-05-14 16:42:00,
2013-05-14 12:47:00,52.2,27.3,-100.00,NW,323,0.0,9.0,38,0.00,,,0.00,meteohub,2013-05-14 16:47:00,
2013-05-14 12:52:00,53.8,27.5,-100.00,NNW,329,0.0,9.0,36,0.00,,,0.00,meteohub,2013-05-14 16:52:00,
2013-05-14 12:57:00,53.2,28.2,-100.00,NW,306,0.0,8.0,38,0.00,,,0.00,meteohub,2013-05-14 16:57:00,
2013-05-14 13:02:00,53.1,26.8,-100.00,WNW,293,5.0,8.0,36,0.00,,,0.00,meteohub,2013-05-14 17:02:00,
2013-05-14 13:07:00,52.2,27.9,-100.00,North,358,0.0,9.0,39,0.00,,,0.00,meteohub,2013-05-14 17:07:00,
2013-05-14 13:12:00,53.4,27.9,-100.00,West,275,1.0,9.0,37,0.00,,,0.00,meteohub,2013-05-14 17:12:00,
2013-05-14 13:17:00,53.1,27.5,-100.00,NNW,336,2.0,10.0,37,0.00,,,0.00,meteohub,2013-05-14 17:17:00,
2013-05-14 13:22:00,52.7,28.4,-100.00,NNE,19,5.0,10.0,39,0.00,,,0.00,meteohub,2013-05-14 17:22:00,
2013-05-14 13:27:00,52.7,28.4,-100.00,NW,313,4.0,10.0,39,0.00,,,0.00,meteohub,2013-05-14 17:27:00,
2013-05-14 13:32:00,52.5,27.7,-100.00,NW,313,2.0,7.0,38,0.00,,,0.00,meteohub,2013-05-14 17:32:00,
2013-05-14 13:38:00,53.1,28.0,-100.00,NNW,331,2.0,8.0,38,0.00,,,0.00,meteohub,2013-05-14 17:38:00,
2013-05-14 13:43:00,55.2,30.0,-100.00,North,11,0.0,8.0,38,0.00,,,0.00,meteohub,2013-05-14 17:43:00,
2013-05-14 13:48:00,53.8,27.5,-100.00,WNW,292,6.0,8.0,36,0.00,,,0.00,meteohub,2013-05-14 17:48:00,
2013-05-14 13:53:00,53.8,27.5,-100.00,NW,320,0.0,9.0,36,0.00,,,0.00,meteohub,2013-05-14 17:53:00,
2013-05-14 13:58:00,53.2,28.9,-100.00,North,350,2.0,9.0,39,0.00,,,0.00,meteohub,2013-05-14 17:58:00,
2013-05-14 14:03:00,53.4,28.4,-100.00,NNE,32,3.0,9.0,38,0.00,,,0.00,meteohub,2013-05-14 18:03:00,
2013-05-14 14:08:00,53.2,27.0,-100.00,NW,312,3.0,9.0,36,0.00,,,0.00,meteohub,2013-05-14 18:08:00,
2013-05-14 14:13:00,53.1,29.3,-100.00,North,9,0.0,11.0,40,0.00,,,0.00,meteohub,2013-05-14 18:13:00,
2013-05-14 14:18:00,54.1,30.4,-100.00,North,7,5.0,11.0,40,0.00,,,0.00,meteohub,2013-05-14 18:18:00,
2013-05-14 14:23:00,52.5,28.2,-100.00,WNW,282,2.0,11.0,39,0.00,,,0.00,meteohub,2013-05-14 18:23:00,
2013-05-14 14:28:00,54.7,28.2,-100.00,North,7,0.0,8.0,36,0.00,,,0.00,meteohub,2013-05-14 18:28:00,
2013-05-14 14:33:00,53.2,27.0,-100.00,NW,309,4.0,8.0,36,0.00,,,0.00,meteohub,2013-05-14 18:33:00,
2013-05-14 14:38:00,53.1,27.5,-100.00,NW,310,0.0,9.0,37,0.00,,,0.00,meteohub,2013-05-14 18:38:00,
2013-05-14 14:43:00,53.4,29.1,-100.00,NNE,22,0.0,9.0,39,0.00,,,0.00,meteohub,2013-05-14 18:43:00,
2013-05-14 14:48:00,53.4,27.9,-100.00,NW,317,2.0,9.0,37,0.00,,,0.00,meteohub,2013-05-14 18:48:00,
2013-05-14 14:53:00,54.0,29.5,-100.00,NW,323,0.0,6.0,39,0.00,,,0.00,meteohub,2013-05-14 18:53:00,
2013-05-14 14:59:00,52.5,28.2,-100.00,WNW,303,5.0,6.0,39,0.00,,,0.00,meteohub,2013-05-14 18:59:00,
2013-05-14 15:04:00,52.7,27.9,-100.00,NNE,12,4.0,7.0,38,0.00,,,0.00,meteohub,2013-05-14 19:04:00,
2013-05-14 15:09:00,53.4,29.1,-100.00,NW,319,6.0,8.0,39,0.00,,,0.00,meteohub,2013-05-14 19:09:00,
2013-05-14 15:14:00,53.4,27.1,-100.00,NW,309,0.0,9.0,36,0.00,,,0.00,meteohub,2013-05-14 19:14:00,
2013-05-14 15:19:00,53.1,27.5,-100.00,NW,320,6.0,9.0,37,0.00,,,0.00,meteohub,2013-05-14 19:19:00,
2013-05-14 15:24:00,52.7,28.4,-100.00,North,351,2.0,9.0,39,0.00,,,0.00,meteohub,2013-05-14 19:24:00,
2013-05-14 15:29:00,52.9,28.0,-100.00,ENE,78,0.0,9.0,38,0.00,,,0.00,meteohub,2013-05-14 19:29:00,
2013-05-14 15:34:00,54.9,29.7,-100.00,NW,317,2.0,9.0,38,0.00,,,0.00,meteohub,2013-05-14 19:34:00,
2013-05-14 15:39:00,54.3,27.9,-100.00,North,11,0.0,9.0,36,0.00,,,0.00,meteohub,2013-05-14 19:39:00,
2013-05-14 15:44:00,52.5,25.7,-100.00,NNW,338,4.0,8.0,35,0.00,,,0.00,meteohub,2013-05-14 19:44:00,
2013-05-14 15:49:00,54.0,27.7,-100.00,WNW,298,5.0,8.0,36,0.00,,,0.00,meteohub,2013-05-14 19:49:00,
2013-05-14 15:54:00,54.1,30.4,-100.00,North,357,0.0,10.0,40,0.00,,,0.00,meteohub,2013-05-14 19:54:00,
2013-05-14 15:59:00,53.1,28.8,-100.00,WNW,298,0.0,10.0,39,0.00,,,0.00,meteohub,2013-05-14 19:59:00,
2013-05-14 16:04:00,53.4,29.7,-100.00,NW,323,0.0,10.0,40,0.00,,,0.00,meteohub,2013-05-14 20:04:00,
2013-05-14 16:09:00,53.8,28.8,-100.00,NW,313,1.0,8.0,38,0.00,,,0.00,meteohub,2013-05-14 20:09:00,
2013-05-14 16:14:00,54.3,29.8,-100.00,WNW,298,0.0,8.0,39,0.00,,,0.00,meteohub,2013-05-14 20:14:00,
2013-05-14 16:19:00,54.1,28.4,-100.00,NW,322,2.0,8.0,37,0.00,,,0.00,meteohub,2013-05-14 20:19:00,
2013-05-14 16:24:00,55.2,30.0,-100.00,NW,324,2.0,8.0,38,0.00,,,0.00,meteohub,2013-05-14 20:24:00,
2013-05-14 16:29:00,55.2,30.0,-100.00,West,281,2.0,5.0,38,0.00,,,0.00,meteohub,2013-05-14 20:29:00,
2013-05-14 16:35:00,54.1,28.4,-100.00,NW,322,0.0,7.0,37,0.00,,,0.00,meteohub,2013-05-14 20:35:00,
2013-05-14 16:40:00,54.9,30.4,-100.00,North,5,0.0,7.0,39,0.00,,,0.00,meteohub,2013-05-14 20:40:00,
2013-05-14 16:45:00,53.8,28.0,-100.00,NNW,344,3.0,7.0,37,0.00,,,0.00,meteohub,2013-05-14 20:45:00,
2013-05-14 16:50:00,54.1,29.7,-100.00,NW,316,4.0,7.0,39,0.00,,,0.00,meteohub,2013-05-14 20:50:00,
2013-05-14 16:55:00,54.1,28.4,-100.00,WNW,299,4.0,7.0,37,0.00,,,0.00,meteohub,2013-05-14 20:55:00,
2013-05-14 17:00:00,53.8,29.5,-100.00,NE,49,1.0,7.0,39,0.00,,,0.00,meteohub,2013-05-14 21:00:00,
2013-05-14 17:05:00,53.4,28.4,-100.00,WNW,288,0.0,7.0,38,0.00,,,0.00,meteohub,2013-05-14 21:05:00,
2013-05-14 17:10:00,53.8,29.5,-100.00,NW,326,2.0,7.0,39,0.00,,,0.00,meteohub,2013-05-14 21:10:00,
2013-05-14 17:15:00,53.8,28.8,-100.00,NW,320,0.0,7.0,38,0.00,,,0.00,meteohub,2013-05-14 21:15:00,
2013-05-14 17:20:00,53.4,29.1,-100.00,NW,326,4.0,6.0,39,0.00,,,0.00,meteohub,2013-05-14 21:20:00,
2013-05-14 17:25:00,53.2,27.7,-100.00,NNW,337,4.0,6.0,37,0.00,,,0.00,meteohub,2013-05-14 21:25:00,
2013-05-14 17:30:00,53.2,27.0,-100.00,NW,307,2.0,5.0,36,0.00,,,0.00,meteohub,2013-05-14 21:30:00,
2013-05-14 17:35:00,53.4,27.1,-100.00,NW,326,0.0,8.0,36,0.00,,,0.00,meteohub,2013-05-14 21:35:00,
2013-05-14 17:40:00,53.4,27.9,-100.00,NNE,18,2.0,8.0,37,0.00,,,0.00,meteohub,2013-05-14 21:40:00,
2013-05-14 17:45:00,53.8,30.0,-100.00,North,355,0.0,8.0,40,0.00,,,0.00,meteohub,2013-05-14 21:45:00,
2013-05-14 17:50:00,52.7,27.9,-100.00,NNW,345,5.0,8.0,38,0.00,,,0.00,meteohub,2013-05-14 21:50:00,
2013-05-14 17:56:00,53.4,28.4,-100.00,NW,324,4.0,6.0,38,0.00,,,0.00,meteohub,2013-05-14 21:56:00,
2013-05-14 18:01:00,54.0,29.5,-100.00,North,5,0.0,8.0,39,0.00,,,0.00,meteohub,2013-05-14 22:01:00,
2013-05-14 18:06:00,52.3,28.0,-100.00,North,5,0.0,8.0,39,0.00,,,0.00,meteohub,2013-05-14 22:06:00,
2013-05-14 18:11:00,53.6,29.3,-100.00,NW,309,2.0,8.0,39,0.00,,,0.00,meteohub,2013-05-14 22:11:00,
2013-05-14 18:16:00,54.5,31.3,-100.00,NNE,18,0.0,7.0,41,0.00,,,0.00,meteohub,2013-05-14 22:16:00,
2013-05-14 18:21:00,54.7,30.2,-100.00,ESE,123,6.0,7.0,39,0.00,,,0.00,meteohub,2013-05-14 22:21:00,
2013-05-14 18:26:00,53.6,27.3,-100.00,NW,323,6.0,7.0,36,0.00,,,0.00,meteohub,2013-05-14 22:26:00,
2013-05-14 18:31:00,55.8,30.6,-100.00,North,351,2.0,8.0,38,0.00,,,0.00,meteohub,2013-05-14 22:31:00,
2013-05-14 18:36:00,55.2,28.8,-100.00,NW,319,4.0,8.0,36,0.00,,,0.00,meteohub,2013-05-14 22:36:00,
2013-05-14 18:41:00,56.1,29.5,-100.00,WNW,288,4.0,11.0,36,0.00,,,0.00,meteohub,2013-05-14 22:41:00,
2013-05-14 18:46:00,53.8,28.8,-100.00,NNE,19,0.0,11.0,38,0.00,,,0.00,meteohub,2013-05-14 22:46:00,
2013-05-14 18:51:00,54.1,29.1,-100.00,North,358,1.0,11.0,38,0.00,,,0.00,meteohub,2013-05-14 22:51:00,
2013-05-14 18:56:00,54.1,29.1,-100.00,NW,320,4.0,9.0,38,0.00,,,0.00,meteohub,2013-05-14 22:56:00,
2013-05-14 19:01:00,53.6,28.0,-100.00,NNW,340,3.0,8.0,37,0.00,,,0.00,meteohub,2013-05-14 23:01:00,
2013-05-14 19:07:00,54.1,29.1,-100.00,North,354,1.0,6.0,38,0.00,,,0.00,meteohub,2013-05-14 23:07:00,
2013-05-14 19:12:00,53.6,29.3,-100.00,NW,312,0.0,6.0,39,0.00,,,0.00,meteohub,2013-05-14 23:12:00,
2013-05-14 19:17:00,53.6,29.8,-100.00,NW,312,0.0,6.0,40,0.00,,,0.00,meteohub,2013-05-14 23:17:00,
2013-05-14 19:22:00,52.9,29.8,-100.00,NW,319,0.0,4.0,41,0.00,,,0.00,meteohub,2013-05-14 23:22:00,
2013-05-14 19:27:00,52.5,29.5,-100.00,North,352,0.0,4.0,41,0.00,,,0.00,meteohub,2013-05-14 23:27:00,
2013-05-14 19:32:00,52.2,29.8,-100.00,North,352,0.0,4.0,42,0.00,,,0.00,meteohub,2013-05-14 23:32:00,
2013-05-14 19:37:00,52.9,29.8,-100.00,North,352,0.0,4.0,41,0.00,,,0.00,meteohub,2013-05-14 23:37:00,
2013-05-14 19:42:00,52.2,29.8,-100.00,North,352,0.0,0.0,42,0.00,,,0.00,meteohub,2013-05-14 23:42:00,
2013-05-14 19:47:00,52.5,31.3,-100.00,North,352,0.0,0.0,44,0.00,,,0.00,meteohub,2013-05-14 23:47:00,
2013-05-14 19:52:00,52.0,30.2,-100.00,North,352,0.0,0.0,43,0.00,,,0.00,meteohub,2013-05-14 23:52:00,
2013-05-14 19:57:00,51.6,31.5,-100.00,North,352,0.0,0.0,46,0.00,,,0.00,meteohub,2013-05-14 23:57:00,
2013-05-14 20:02:00,51.6,30.4,-100.00,North,352,0.0,0.0,44,0.00,,,0.00,meteohub,2013-05-15 00:02:00,
2013-05-14 20:07:00,52.2,31.5,-100.00,North,352,0.0,0.0,45,0.00,,,0.00,meteohub,2013-05-15 00:07:00,
2013-05-14 20:12:00,52.3,32.2,-100.00,North,352,0.0,0.0,46,0.00,,,0.00,meteohub,2013-05-15 00:12:00,
2013-05-14 20:17:00,50.5,30.6,-100.00,North,352,0.0,0.0,46,0.00,,,0.00,meteohub,2013-05-15 00:17:00,
2013-05-14 20:22:00,51.1,31.6,-100.00,North,352,0.0,0.0,47,0.00,,,0.00,meteohub,2013-05-15 00:22:00,
2013-05-14 20:27:00,50.2,30.7,-100.00,North,352,0.0,0.0,47,0.00,,,0.00,meteohub,2013-05-15 00:27:00,
2013-05-14 20:32:00,50.2,31.3,-100.00,North,352,0.0,0.0,48,0.00,,,0.00,meteohub,2013-05-15 00:32:00,
2013-05-14 20:37:00,50.5,31.6,-100.00,North,352,0.0,0.0,48,0.00,,,0.00,meteohub,2013-05-15 00:37:00,
2013-05-14 20:43:00,50.7,31.8,-100.00,North,352,0.0,0.0,48,0.00,,,0.00,meteohub,2013-05-15 00:43:00,
2013-05-14 20:48:00,49.5,30.6,-100.00,North,352,0.0,0.0,48,0.00,,,0.00,meteohub,2013-05-15 00:48:00,
2013-05-14 20:53:00,50.2,31.8,-100.00,North,352,0.0,0.0,49,0.00,,,0.00,meteohub,2013-05-15 00:53:00,
2013-05-14 20:58:00,50.7,32.2,-100.00,North,352,0.0,0.0,49,0.00,,,0.00,meteohub,2013-05-15 00:58:00,
2013-05-14 21:03:00,50.0,31.6,-100.00,North,352,0.0,0.0,49,0.00,,,0.00,meteohub,2013-05-15 01:03:00,
2013-05-14 21:08:00,51.1,33.1,-100.00,North,352,0.0,0.0,50,0.00,,,0.00,meteohub,2013-05-15 01:08:00,
2013-05-14 21:13:00,49.3,31.5,-100.00,North,352,0.0,0.0,50,0.00,,,0.00,meteohub,2013-05-15 01:13:00,
2013-05-14 21:18:00,51.1,33.6,-100.00,North,352,0.0,0.0,51,0.00,,,0.00,meteohub,2013-05-15 01:18:00,
2013-05-14 21:23:00,50.0,32.5,-100.00,North,352,0.0,0.0,51,0.00,,,0.00,meteohub,2013-05-15 01:23:00,
2013-05-14 21:28:00,49.3,32.4,-100.00,North,352,0.0,0.0,52,0.00,,,0.00,meteohub,2013-05-15 01:28:00,
2013-05-14 21:33:00,49.5,32.5,-100.00,North,352,0.0,0.0,52,0.00,,,0.00,meteohub,2013-05-15 01:33:00,
2013-05-14 21:38:00,50.2,33.3,-100.00,North,352,0.0,0.0,52,0.00,,,0.00,meteohub,2013-05-15 01:38:00,
2013-05-14 21:43:00,50.0,33.1,-100.00,North,352,0.0,0.0,52,0.00,,,0.00,meteohub,2013-05-15 01:43:00,
2013-05-14 21:48:00,49.6,32.7,-100.00,North,352,0.0,0.0,52,0.00,,,0.00,meteohub,2013-05-15 01:48:00,
2013-05-14 21:54:00,50.0,33.1,-100.00,North,352,0.0,0.0,52,0.00,,,0.00,meteohub,2013-05-15 01:54:00,
2013-05-14 21:59:00,49.3,32.4,-100.00,North,352,0.0,0.0,52,0.00,,,0.00,meteohub,2013-05-15 01:59:00,
2013-05-14 22:04:00,49.5,33.1,-100.00,North,352,0.0,0.0,53,0.00,,,0.00,meteohub,2013-05-15 02:04:00,
2013-05-14 22:09:00,49.6,33.6,-100.00,North,352,0.0,0.0,54,0.00,,,0.00,meteohub,2013-05-15 02:09:00,
2013-05-14 22:14:00,48.9,33.4,-100.00,North,352,0.0,0.0,55,0.00,,,0.00,meteohub,2013-05-15 02:14:00,
2013-05-14 22:19:00,48.6,33.1,-100.00,North,352,0.0,0.0,55,0.00,,,0.00,meteohub,2013-05-15 02:19:00,
2013-05-14 22:24:00,49.5,34.9,-100.00,North,352,0.0,0.0,57,0.00,,,0.00,meteohub,2013-05-15 02:24:00,
2013-05-14 22:29:00,48.6,34.5,-100.00,North,352,0.0,0.0,58,0.00,,,0.00,meteohub,2013-05-15 02:29:00,
2013-05-14 22:34:00,47.7,33.3,-100.00,North,352,0.0,0.0,57,0.00,,,0.00,meteohub,2013-05-15 02:34:00,
2013-05-14 22:39:00,46.8,32.7,-100.00,North,352,0.0,0.0,58,0.00,,,0.00,meteohub,2013-05-15 02:39:00,
2013-05-14 22:44:00,46.8,33.3,-100.00,North,352,0.0,0.0,59,0.00,,,0.00,meteohub,2013-05-15 02:44:00,
2013-05-14 22:49:00,46.8,33.6,-100.00,North,352,0.0,0.0,60,0.00,,,0.00,meteohub,2013-05-15 02:49:00,
2013-05-14 22:54:00,46.6,33.8,-100.00,North,352,0.0,0.0,61,0.00,,,0.00,meteohub,2013-05-15 02:54:00,
2013-05-14 22:59:00,46.2,33.4,-100.00,North,352,0.0,0.0,61,0.00,,,0.00,meteohub,2013-05-15 02:59:00,
2013-05-14 23:04:00,46.6,34.3,-100.00,North,352,0.0,0.0,62,0.00,,,0.00,meteohub,2013-05-15 03:04:00,
2013-05-14 23:09:00,45.9,34.0,-100.00,North,352,0.0,0.0,63,0.00,,,0.00,meteohub,2013-05-15 03:09:00,
2013-05-14 23:14:00,45.3,33.4,-100.00,North,352,0.0,0.0,63,0.00,,,0.00,meteohub,2013-05-15 03:14:00,
2013-05-14 23:19:00,45.7,33.8,-100.00,North,352,0.0,0.0,63,0.00,,,0.00,meteohub,2013-05-15 03:19:00,
2013-05-14 23:25:00,45.3,33.8,-100.00,North,352,0.0,0.0,64,0.00,,,0.00,meteohub,2013-05-15 03:25:00,
2013-05-14 23:30:00,45.9,34.7,-100.00,North,352,0.0,0.0,65,0.00,,,0.00,meteohub,2013-05-15 03:30:00,
2013-05-14 23:35:00,45.9,35.1,-100.00,North,352,0.0,0.0,66,0.00,,,0.00,meteohub,2013-05-15 03:35:00,
2013-05-14 23:40:00,45.0,34.7,-100.00,North,352,0.0,0.0,67,0.00,,,0.00,meteohub,2013-05-15 03:40:00,
2013-05-14 23:45:00,45.7,35.4,-100.00,North,352,0.0,0.0,67,0.00,,,0.00,meteohub,2013-05-15 03:45:00,
2013-05-14 23:50:00,45.0,34.7,-100.00,North,352,0.0,0.0,67,0.00,,,0.00,meteohub,2013-05-15 03:50:00,
2013-05-14 23:55:00,45.0,35.1,-100.00,North,352,0.0,0.0,68,0.00,,,0.00,meteohub,2013-05-15 03:55:00,